SAMR/AFA METAR and TAF weather

Enter ICAO airport designator
Station Type Date Time Source
SAMR METAR 2019/12/02 20:35 UTC NOAA

SAMR 022035Z 36015KT 9999 TSSH BKN025TCU SCT040CB 27/12 Q1008


Station Type Date Time Source
SAMR Decoded METAR 2019/12/02 20:35 UTC NOAA

San Rafael Aerodrome, Argentina (SAMR) 34-35S 068-24W 748M
Dec 02, 2019 - 03:35 PM EST / 2019.12.02 2035 UTC
Wind: from the N (360 degrees) at 17 MPH (15 KT):0
Visibility: greater than 7 mile(s):0
Sky conditions: mostly cloudy
Weather: showers; Cumulonimbus clouds, towering cumulus clouds observed
Temperature: 80 F (27 C)
Dew Point: 53 F (12 C)
Relative Humidity: 39%
Pressure (altimeter): 29.77 in. Hg (1008 hPa)
ob: SAMR 022035Z 36015KT 9999 TSSH BKN025TCU SCT040CB 27/12 Q1008
cycle: 20

Station Type Date Time Source
SAMR TAF 2019/08/18 18:03 UTC NOAA

TAF SAMR 181700Z 1818/1918 16010KT 9999 OVC030 SCT070 TX12/1819Z TN01/1911Z

Example: see airport list